sensor_id;sensor_type;location;lat;lon;timestamp;P1;durP1;ratioP1;P2;durP2;ratioP2
52043;SDS011;38053;53.100;6.078;2023-09-12T00:00:58;57.03;;;43.67;;
52043;SDS011;38053;53.100;6.078;2023-09-12T00:03:32;55.15;;;43.83;;
52043;SDS011;38053;53.100;6.078;2023-09-12T00:05:59;57.28;;;44.40;;
52043;SDS011;38053;53.100;6.078;2023-09-12T00:08:26;57.40;;;44.25;;
52043;SDS011;38053;53.100;6.078;2023-09-12T00:11:08;54.78;;;43.90;;
52043;SDS011;38053;53.100;6.078;2023-09-12T00:13:36;59.33;;;44.72;;
52043;SDS011;38053;53.100;6.078;2023-09-12T00:16:03;56.03;;;41.35;;
52043;SDS011;38053;53.100;6.078;2023-09-12T00:18:30;57.80;;;43.72;;
52043;SDS011;38053;53.100;6.078;2023-09-12T00:20:56;54.90;;;42.13;;
52043;SDS011;38053;53.100;6.078;2023-09-12T00:23:24;52.25;;;41.30;;
52043;SDS011;38053;53.100;6.078;2023-09-12T00:25:50;57.55;;;43.40;;
52043;SDS011;38053;53.100;6.078;2023-09-12T00:28:19;59.22;;;45.65;;
52043;SDS011;38053;53.100;6.078;2023-09-12T00:30:45;54.55;;;44.10;;
52043;SDS011;38053;53.100;6.078;2023-09-12T00:33:11;53.00;;;42.58;;
52043;SDS011;38053;53.100;6.078;2023-09-12T00:35:37;56.38;;;43.00;;
52043;SDS011;38053;53.100;6.078;2023-09-12T00:38:03;50.92;;;42.88;;
52043;SDS011;38053;53.100;6.078;2023-09-12T00:40:29;52.00;;;40.35;;
52043;SDS011;38053;53.100;6.078;2023-09-12T00:42:55;57.25;;;40.28;;
52043;SDS011;38053;53.100;6.078;2023-09-12T00:45:21;57.50;;;40.28;;
52043;SDS011;38053;53.100;6.078;2023-09-12T00:47:47;57.10;;;40.35;;
52043;SDS011;38053;53.100;6.078;2023-09-12T00:50:14;50.70;;;39.88;;
52043;SDS011;38053;53.100;6.078;2023-09-12T00:52:41;59.45;;;42.40;;
52043;SDS011;38053;53.100;6.078;2023-09-12T00:55:07;51.70;;;39.92;;
52043;SDS011;38053;53.100;6.078;2023-09-12T00:57:34;53.47;;;39.50;;
52043;SDS011;38053;53.100;6.078;2023-09-12T01:00:01;54.65;;;40.83;;
52043;SDS011;38053;53.100;6.078;2023-09-12T01:02:38;58.40;;;42.08;;
52043;SDS011;38053;53.100;6.078;2023-09-12T01:05:06;49.63;;;42.65;;
52043;SDS011;38053;53.100;6.078;2023-09-12T01:07:32;51.72;;;41.58;;
52043;SDS011;38053;53.100;6.078;2023-09-12T01:09:59;53.65;;;40.95;;
52043;SDS011;38053;53.100;6.078;2023-09-12T01:12:25;54.63;;;40.95;;
52043;SDS011;38053;53.100;6.078;2023-09-12T01:14:50;48.05;;;38.28;;
52043;SDS011;38053;53.100;6.078;2023-09-12T01:17:16;48.92;;;40.95;;
52043;SDS011;38053;53.100;6.078;2023-09-12T01:19:42;53.88;;;41.85;;
52043;SDS011;38053;53.100;6.078;2023-09-12T01:28:01;53.88;;;42.47;;
52043;SDS011;38053;53.100;6.078;2023-09-12T01:30:29;58.42;;;43.20;;
52043;SDS011;38053;53.100;6.078;2023-09-12T01:32:57;57.13;;;42.03;;
52043;SDS011;38053;53.100;6.078;2023-09-12T01:35:24;55.63;;;42.53;;
52043;SDS011;38053;53.100;6.078;2023-09-12T01:37:50;57.88;;;43.08;;
52043;SDS011;38053;53.100;6.078;2023-09-12T01:40:16;59.45;;;41.20;;
52043;SDS011;38053;53.100;6.078;2023-09-12T01:42:45;54.85;;;41.47;;
52043;SDS011;38053;53.100;6.078;2023-09-12T01:45:13;55.78;;;42.85;;
52043;SDS011;38053;53.100;6.078;2023-09-12T01:47:42;57.38;;;41.90;;
52043;SDS011;38053;53.100;6.078;2023-09-12T01:50:10;58.17;;;40.95;;
52043;SDS011;38053;53.100;6.078;2023-09-12T01:52:38;57.95;;;43.13;;
52043;SDS011;38053;53.100;6.078;2023-09-12T01:55:05;52.78;;;39.63;;
52043;SDS011;38053;53.100;6.078;2023-09-12T01:57:34;55.00;;;39.80;;
52043;SDS011;38053;53.100;6.078;2023-09-12T02:00:01;63.83;;;41.45;;
52043;SDS011;38053;53.100;6.078;2023-09-12T02:02:26;56.50;;;40.67;;
52043;SDS011;38053;53.100;6.078;2023-09-12T02:05:11;61.80;;;43.22;;
52043;SDS011;38053;53.100;6.078;2023-09-12T02:07:41;62.78;;;43.40;;
52043;SDS011;38053;53.100;6.078;2023-09-12T02:10:07;54.35;;;39.28;;
52043;SDS011;38053;53.100;6.078;2023-09-12T02:12:34;73.20;;;44.75;;
52043;SDS011;38053;53.100;6.078;2023-09-12T02:15:00;53.38;;;42.08;;
52043;SDS011;38053;53.100;6.078;2023-09-12T02:17:26;60.20;;;43.47;;
52043;SDS011;38053;53.100;6.078;2023-09-12T02:19:51;55.25;;;43.10;;
52043;SDS011;38053;53.100;6.078;2023-09-12T02:22:17;60.55;;;44.22;;
52043;SDS011;38053;53.100;6.078;2023-09-12T02:24:43;74.68;;;45.33;;
52043;SDS011;38053;53.100;6.078;2023-09-12T02:27:09;60.92;;;42.17;;
52043;SDS011;38053;53.100;6.078;2023-09-12T02:29:34;58.58;;;44.03;;
52043;SDS011;38053;53.100;6.078;2023-09-12T02:32:00;51.13;;;38.47;;
52043;SDS011;38053;53.100;6.078;2023-09-12T02:34:26;48.22;;;37.03;;
52043;SDS011;38053;53.100;6.078;2023-09-12T02:36:52;57.00;;;40.38;;
52043;SDS011;38053;53.100;6.078;2023-09-12T02:39:18;59.75;;;41.78;;
52043;SDS011;38053;53.100;6.078;2023-09-12T02:41:43;69.30;;;43.83;;
52043;SDS011;38053;53.100;6.078;2023-09-12T02:44:09;64.22;;;43.05;;
52043;SDS011;38053;53.100;6.078;2023-09-12T02:46:36;59.88;;;43.53;;
52043;SDS011;38053;53.100;6.078;2023-09-12T02:49:02;51.97;;;40.10;;
52043;SDS011;38053;53.100;6.078;2023-09-12T02:51:27;51.78;;;40.28;;
52043;SDS011;38053;53.100;6.078;2023-09-12T02:53:53;70.13;;;43.95;;
52043;SDS011;38053;53.100;6.078;2023-09-12T02:56:19;48.80;;;40.40;;
52043;SDS011;38053;53.100;6.078;2023-09-12T02:58:48;55.08;;;38.83;;
52043;SDS011;38053;53.100;6.078;2023-09-12T03:01:15;53.72;;;35.88;;
52043;SDS011;38053;53.100;6.078;2023-09-12T03:03:41;199.65;;;50.72;;
52043;SDS011;38053;53.100;6.078;2023-09-12T03:06:07;162.60;;;47.63;;
52043;SDS011;38053;53.100;6.078;2023-09-12T03:08:33;108.07;;;37.53;;
52043;SDS011;38053;53.100;6.078;2023-09-12T03:10:58;207.52;;;48.13;;
52043;SDS011;38053;53.100;6.078;2023-09-12T03:13:26;181.18;;;47.00;;
52043;SDS011;38053;53.100;6.078;2023-09-12T03:15:52;148.05;;;44.10;;
52043;SDS011;38053;53.100;6.078;2023-09-12T03:18:18;75.45;;;37.28;;
52043;SDS011;38053;53.100;6.078;2023-09-12T03:20:44;142.63;;;44.35;;
52043;SDS011;38053;53.100;6.078;2023-09-12T03:23:10;180.10;;;48.42;;
52043;SDS011;38053;53.100;6.078;2023-09-12T03:25:39;190.32;;;45.05;;
52043;SDS011;38053;53.100;6.078;2023-09-12T03:28:05;123.18;;;42.58;;
52043;SDS011;38053;53.100;6.078;2023-09-12T03:30:35;83.50;;;39.20;;
52043;SDS011;38053;53.100;6.078;2023-09-12T03:33:01;114.72;;;43.40;;
52043;SDS011;38053;53.100;6.078;2023-09-12T03:35:33;213.98;;;49.42;;
52043;SDS011;38053;53.100;6.078;2023-09-12T03:37:59;126.35;;;41.08;;
52043;SDS011;38053;53.100;6.078;2023-09-12T03:40:27;91.10;;;38.88;;
52043;SDS011;38053;53.100;6.078;2023-09-12T03:42:57;106.50;;;38.30;;
52043;SDS011;38053;53.100;6.078;2023-09-12T03:45:23;236.85;;;53.47;;
52043;SDS011;38053;53.100;6.078;2023-09-12T03:47:49;64.05;;;35.92;;
52043;SDS011;38053;53.100;6.078;2023-09-12T03:50:15;163.95;;;44.17;;
52043;SDS011;38053;53.100;6.078;2023-09-12T03:52:40;162.85;;;42.08;;
52043;SDS011;38053;53.100;6.078;2023-09-12T03:55:06;116.30;;;40.08;;
52043;SDS011;38053;53.100;6.078;2023-09-12T03:57:32;180.60;;;47.30;;
52043;SDS011;38053;53.100;6.078;2023-09-12T03:59:58;167.88;;;47.40;;
52043;SDS011;38053;53.100;6.078;2023-09-12T04:02:24;172.30;;;50.40;;
52043;SDS011;38053;53.100;6.078;2023-09-12T04:04:49;120.13;;;45.15;;
52043;SDS011;38053;53.100;6.078;2023-09-12T04:07:17;109.93;;;44.90;;
52043;SDS011;38053;53.100;6.078;2023-09-12T04:09:42;60.58;;;38.03;;
52043;SDS011;38053;53.100;6.078;2023-09-12T04:12:08;81.40;;;41.67;;
52043;SDS011;38053;53.100;6.078;2023-09-12T04:14:34;80.97;;;40.42;;
52043;SDS011;38053;53.100;6.078;2023-09-12T04:17:00;91.40;;;48.38;;
52043;SDS011;38053;53.100;6.078;2023-09-12T04:19:26;73.22;;;43.35;;
52043;SDS011;38053;53.100;6.078;2023-09-12T04:21:52;182.93;;;55.50;;
52043;SDS011;38053;53.100;6.078;2023-09-12T04:24:18;81.55;;;43.40;;
52043;SDS011;38053;53.100;6.078;2023-09-12T04:26:43;85.18;;;44.15;;
52043;SDS011;38053;53.100;6.078;2023-09-12T04:29:09;80.53;;;42.97;;
52043;SDS011;38053;53.100;6.078;2023-09-12T04:31:35;107.75;;;47.17;;
52043;SDS011;38053;53.100;6.078;2023-09-12T04:34:01;83.63;;;44.88;;
52043;SDS011;38053;53.100;6.078;2023-09-12T04:36:27;102.07;;;48.35;;
52043;SDS011;38053;53.100;6.078;2023-09-12T04:38:53;102.63;;;48.25;;
52043;SDS011;38053;53.100;6.078;2023-09-12T04:41:19;122.25;;;51.83;;
52043;SDS011;38053;53.100;6.078;2023-09-12T04:43:44;214.50;;;57.92;;
52043;SDS011;38053;53.100;6.078;2023-09-12T04:46:10;136.55;;;48.33;;
52043;SDS011;38053;53.100;6.078;2023-09-12T04:48:37;243.15;;;59.88;;
52043;SDS011;38053;53.100;6.078;2023-09-12T04:51:03;81.95;;;45.28;;
52043;SDS011;38053;53.100;6.078;2023-09-12T04:53:29;225.48;;;60.38;;
52043;SDS011;38053;53.100;6.078;2023-09-12T04:56:05;182.27;;;56.78;;
52043;SDS011;38053;53.100;6.078;2023-09-12T04:58:31;138.57;;;55.22;;
52043;SDS011;38053;53.100;6.078;2023-09-12T05:00:57;96.70;;;48.38;;
52043;SDS011;38053;53.100;6.078;2023-09-12T05:03:23;82.43;;;48.80;;
52043;SDS011;38053;53.100;6.078;2023-09-12T05:05:49;137.55;;;53.58;;
52043;SDS011;38053;53.100;6.078;2023-09-12T05:08:15;120.32;;;51.53;;
52043;SDS011;38053;53.100;6.078;2023-09-12T05:10:45;103.32;;;49.13;;
52043;SDS011;38053;53.100;6.078;2023-09-12T05:13:11;80.28;;;46.97;;
52043;SDS011;38053;53.100;6.078;2023-09-12T05:15:37;99.18;;;50.08;;
52043;SDS011;38053;53.100;6.078;2023-09-12T05:18:05;106.20;;;52.40;;
52043;SDS011;38053;53.100;6.078;2023-09-12T05:20:31;95.32;;;51.10;;
52043;SDS011;38053;53.100;6.078;2023-09-12T05:22:58;95.22;;;49.28;;
52043;SDS011;38053;53.100;6.078;2023-09-12T05:25:23;66.97;;;46.72;;
52043;SDS011;38053;53.100;6.078;2023-09-12T05:27:49;82.18;;;50.35;;
52043;SDS011;38053;53.100;6.078;2023-09-12T05:30:15;78.80;;;48.60;;
52043;SDS011;38053;53.100;6.078;2023-09-12T05:32:41;81.75;;;50.30;;
52043;SDS011;38053;53.100;6.078;2023-09-12T05:35:07;92.63;;;51.38;;
52043;SDS011;38053;53.100;6.078;2023-09-12T05:37:32;83.40;;;49.83;;
52043;SDS011;38053;53.100;6.078;2023-09-12T05:39:58;79.18;;;50.55;;
52043;SDS011;38053;53.100;6.078;2023-09-12T05:42:24;71.68;;;48.88;;
52043;SDS011;38053;53.100;6.078;2023-09-12T05:44:50;79.80;;;49.45;;
52043;SDS011;38053;53.100;6.078;2023-09-12T05:47:19;70.80;;;48.35;;
52043;SDS011;38053;53.100;6.078;2023-09-12T05:49:45;87.00;;;49.95;;
52043;SDS011;38053;53.100;6.078;2023-09-12T05:52:11;119.47;;;55.25;;
52043;SDS011;38053;53.100;6.078;2023-09-12T05:54:36;166.98;;;60.08;;
52043;SDS011;38053;53.100;6.078;2023-09-12T05:57:03;117.80;;;54.20;;
52043;SDS011;38053;53.100;6.078;2023-09-12T05:59:29;280.55;;;73.13;;
52043;SDS011;38053;53.100;6.078;2023-09-12T06:01:54;132.02;;;55.33;;
52043;SDS011;38053;53.100;6.078;2023-09-12T06:04:20;105.80;;;53.28;;
52043;SDS011;38053;53.100;6.078;2023-09-12T06:06:46;154.10;;;59.10;;
52043;SDS011;38053;53.100;6.078;2023-09-12T06:09:12;86.60;;;49.13;;
52043;SDS011;38053;53.100;6.078;2023-09-12T06:11:38;196.70;;;58.67;;
52043;SDS011;38053;53.100;6.078;2023-09-12T06:14:04;230.30;;;65.93;;
52043;SDS011;38053;53.100;6.078;2023-09-12T06:16:29;207.20;;;60.63;;
52043;SDS011;38053;53.100;6.078;2023-09-12T06:18:55;184.82;;;57.20;;
52043;SDS011;38053;53.100;6.078;2023-09-12T06:21:21;217.52;;;61.83;;
52043;SDS011;38053;53.100;6.078;2023-09-12T06:23:47;193.38;;;58.55;;
52043;SDS011;38053;53.100;6.078;2023-09-12T06:26:13;189.73;;;60.03;;
52043;SDS011;38053;53.100;6.078;2023-09-12T06:28:39;215.13;;;66.78;;
52043;SDS011;38053;53.100;6.078;2023-09-12T06:31:07;131.30;;;58.45;;
52043;SDS011;38053;53.100;6.078;2023-09-12T06:33:34;124.38;;;60.05;;
52043;SDS011;38053;53.100;6.078;2023-09-12T06:36:00;205.55;;;68.35;;
52043;SDS011;38053;53.100;6.078;2023-09-12T06:38:25;190.95;;;67.60;;
52043;SDS011;38053;53.100;6.078;2023-09-12T06:40:51;125.65;;;55.75;;
52043;SDS011;38053;53.100;6.078;2023-09-12T06:43:17;193.75;;;67.53;;
52043;SDS011;38053;53.100;6.078;2023-09-12T06:45:43;166.55;;;64.00;;
52043;SDS011;38053;53.100;6.078;2023-09-12T06:48:08;142.38;;;65.10;;
52043;SDS011;38053;53.100;6.078;2023-09-12T06:50:34;110.20;;;58.88;;
52043;SDS011;38053;53.100;6.078;2023-09-12T06:53:03;99.60;;;57.03;;
52043;SDS011;38053;53.100;6.078;2023-09-12T06:55:30;115.65;;;60.95;;
52043;SDS011;38053;53.100;6.078;2023-09-12T06:57:56;134.60;;;64.15;;
52043;SDS011;38053;53.100;6.078;2023-09-12T07:00:22;105.45;;;61.92;;
52043;SDS011;38053;53.100;6.078;2023-09-12T07:02:47;132.45;;;62.92;;
52043;SDS011;38053;53.100;6.078;2023-09-12T07:05:13;111.18;;;60.55;;
52043;SDS011;38053;53.100;6.078;2023-09-12T07:07:39;120.28;;;62.22;;
52043;SDS011;38053;53.100;6.078;2023-09-12T07:10:05;129.20;;;67.18;;
52043;SDS011;38053;53.100;6.078;2023-09-12T07:12:31;111.90;;;62.00;;
52043;SDS011;38053;53.100;6.078;2023-09-12T07:14:58;131.32;;;66.43;;
52043;SDS011;38053;53.100;6.078;2023-09-12T07:17:23;142.68;;;67.95;;
52043;SDS011;38053;53.100;6.078;2023-09-12T07:19:49;125.88;;;66.72;;
52043;SDS011;38053;53.100;6.078;2023-09-12T07:22:16;110.63;;;62.33;;
52043;SDS011;38053;53.100;6.078;2023-09-12T07:24:41;149.10;;;72.97;;
52043;SDS011;38053;53.100;6.078;2023-09-12T07:27:07;108.45;;;60.22;;
52043;SDS011;38053;53.100;6.078;2023-09-12T07:29:33;129.63;;;66.03;;
52043;SDS011;38053;53.100;6.078;2023-09-12T07:31:59;117.75;;;65.63;;
52043;SDS011;38053;53.100;6.078;2023-09-12T07:34:24;138.68;;;68.28;;
52043;SDS011;38053;53.100;6.078;2023-09-12T07:36:50;139.48;;;66.20;;
52043;SDS011;38053;53.100;6.078;2023-09-12T07:39:19;134.73;;;67.10;;
52043;SDS011;38053;53.100;6.078;2023-09-12T07:41:45;133.60;;;66.65;;
52043;SDS011;38053;53.100;6.078;2023-09-12T07:44:11;111.32;;;64.57;;
52043;SDS011;38053;53.100;6.078;2023-09-12T07:46:37;105.80;;;62.00;;
52043;SDS011;38053;53.100;6.078;2023-09-12T07:49:03;104.18;;;61.55;;
52043;SDS011;38053;53.100;6.078;2023-09-12T07:51:29;109.80;;;61.80;;
52043;SDS011;38053;53.100;6.078;2023-09-12T07:53:54;114.30;;;63.38;;
52043;SDS011;38053;53.100;6.078;2023-09-12T07:56:20;102.32;;;61.60;;
52043;SDS011;38053;53.100;6.078;2023-09-12T07:58:46;98.47;;;59.10;;
52043;SDS011;38053;53.100;6.078;2023-09-12T08:01:12;101.25;;;60.22;;
52043;SDS011;38053;53.100;6.078;2023-09-12T08:03:38;99.20;;;61.45;;
52043;SDS011;38053;53.100;6.078;2023-09-12T08:06:05;99.32;;;62.03;;
52043;SDS011;38053;53.100;6.078;2023-09-12T08:08:31;110.10;;;60.78;;
52043;SDS011;38053;53.100;6.078;2023-09-12T08:10:57;103.45;;;60.65;;
52043;SDS011;38053;53.100;6.078;2023-09-12T08:13:25;105.25;;;61.15;;
52043;SDS011;38053;53.100;6.078;2023-09-12T08:15:52;87.40;;;58.55;;
52043;SDS011;38053;53.100;6.078;2023-09-12T08:18:18;96.95;;;58.47;;
52043;SDS011;38053;53.100;6.078;2023-09-12T08:20:44;89.65;;;58.13;;
52043;SDS011;38053;53.100;6.078;2023-09-12T08:23:09;84.68;;;57.60;;
52043;SDS011;38053;53.100;6.078;2023-09-12T08:25:35;93.97;;;56.80;;
52043;SDS011;38053;53.100;6.078;2023-09-12T08:28:01;83.57;;;55.85;;
52043;SDS011;38053;53.100;6.078;2023-09-12T08:30:26;89.07;;;58.38;;
52043;SDS011;38053;53.100;6.078;2023-09-12T08:32:55;99.30;;;60.53;;
52043;SDS011;38053;53.100;6.078;2023-09-12T08:35:21;90.07;;;60.40;;
52043;SDS011;38053;53.100;6.078;2023-09-12T08:37:47;92.13;;;59.78;;
52043;SDS011;38053;53.100;6.078;2023-09-12T08:40:13;99.63;;;63.15;;
52043;SDS011;38053;53.100;6.078;2023-09-12T08:42:40;88.53;;;57.50;;
52043;SDS011;38053;53.100;6.078;2023-09-12T08:45:16;98.97;;;61.33;;
52043;SDS011;38053;53.100;6.078;2023-09-12T08:48:01;86.00;;;58.00;;
52043;SDS011;38053;53.100;6.078;2023-09-12T08:50:28;101.43;;;58.10;;
52043;SDS011;38053;53.100;6.078;2023-09-12T08:55:24;83.40;;;55.55;;
52043;SDS011;38053;53.100;6.078;2023-09-12T08:57:51;80.80;;;56.78;;
52043;SDS011;38053;53.100;6.078;2023-09-12T09:00:20;86.57;;;57.65;;
52043;SDS011;38053;53.100;6.078;2023-09-12T09:02:47;81.53;;;55.95;;
52043;SDS011;38053;53.100;6.078;2023-09-12T09:05:15;83.32;;;55.58;;
52043;SDS011;38053;53.100;6.078;2023-09-12T09:07:42;80.97;;;54.60;;
52043;SDS011;38053;53.100;6.078;2023-09-12T09:10:16;77.85;;;53.22;;
52043;SDS011;38053;53.100;6.078;2023-09-12T09:12:43;73.68;;;52.03;;
52043;SDS011;38053;53.100;6.078;2023-09-12T09:17:49;77.05;;;53.75;;
52043;SDS011;38053;53.100;6.078;2023-09-12T09:20:26;71.05;;;49.20;;
52043;SDS011;38053;53.100;6.078;2023-09-12T09:23:04;76.13;;;49.50;;
52043;SDS011;38053;53.100;6.078;2023-09-12T09:25:34;67.13;;;48.65;;
52043;SDS011;38053;53.100;6.078;2023-09-12T09:28:17;67.63;;;51.33;;
52043;SDS011;38053;53.100;6.078;2023-09-12T09:30:48;68.38;;;45.60;;
52043;SDS011;38053;53.100;6.078;2023-09-12T09:33:16;68.95;;;46.97;;
52043;SDS011;38053;53.100;6.078;2023-09-12T09:35:42;64.47;;;45.83;;
52043;SDS011;38053;53.100;6.078;2023-09-12T09:38:11;66.22;;;46.85;;
52043;SDS011;38053;53.100;6.078;2023-09-12T09:40:41;63.35;;;46.75;;
52043;SDS011;38053;53.100;6.078;2023-09-12T09:43:10;64.45;;;44.10;;
52043;SDS011;38053;53.100;6.078;2023-09-12T09:45:45;55.15;;;39.05;;
52043;SDS011;38053;53.100;6.078;2023-09-12T09:48:17;54.63;;;39.15;;
52043;SDS011;38053;53.100;6.078;2023-09-12T09:50:46;56.25;;;40.13;;
52043;SDS011;38053;53.100;6.078;2023-09-12T09:53:12;45.50;;;35.55;;
52043;SDS011;38053;53.100;6.078;2023-09-12T09:55:38;51.25;;;39.13;;
52043;SDS011;38053;53.100;6.078;2023-09-12T09:58:07;56.95;;;40.70;;
52043;SDS011;38053;53.100;6.078;2023-09-12T10:00:34;54.88;;;38.53;;
52043;SDS011;38053;53.100;6.078;2023-09-12T10:03:04;54.72;;;37.17;;
52043;SDS011;38053;53.100;6.078;2023-09-12T10:05:33;52.35;;;40.95;;
52043;SDS011;38053;53.100;6.078;2023-09-12T10:08:02;45.17;;;34.58;;
52043;SDS011;38053;53.100;6.078;2023-09-12T10:10:31;36.38;;;27.27;;
52043;SDS011;38053;53.100;6.078;2023-09-12T10:12:59;28.20;;;22.65;;
52043;SDS011;38053;53.100;6.078;2023-09-12T10:15:29;28.35;;;22.75;;
52043;SDS011;38053;53.100;6.078;2023-09-12T10:17:59;30.67;;;23.50;;
52043;SDS011;38053;53.100;6.078;2023-09-12T10:20:38;27.50;;;21.05;;
52043;SDS011;38053;53.100;6.078;2023-09-12T10:23:19;26.95;;;18.30;;
52043;SDS011;38053;53.100;6.078;2023-09-12T10:25:55;26.10;;;18.75;;
52043;SDS011;38053;53.100;6.078;2023-09-12T10:28:23;23.05;;;18.13;;
52043;SDS011;38053;53.100;6.078;2023-09-12T10:30:50;23.15;;;19.35;;
52043;SDS011;38053;53.100;6.078;2023-09-12T10:33:17;25.90;;;20.63;;
52043;SDS011;38053;53.100;6.078;2023-09-12T10:35:43;29.27;;;21.65;;
52043;SDS011;38053;53.100;6.078;2023-09-12T10:38:10;23.55;;;18.70;;
52043;SDS011;38053;53.100;6.078;2023-09-12T10:40:39;26.27;;;18.88;;
52043;SDS011;38053;53.100;6.078;2023-09-12T10:43:05;29.50;;;23.55;;
52043;SDS011;38053;53.100;6.078;2023-09-12T10:45:35;27.13;;;20.75;;
52043;SDS011;38053;53.100;6.078;2023-09-12T10:48:04;30.40;;;20.88;;
52043;SDS011;38053;53.100;6.078;2023-09-12T10:50:30;26.38;;;19.02;;
52043;SDS011;38053;53.100;6.078;2023-09-12T10:52:56;29.95;;;20.85;;
52043;SDS011;38053;53.100;6.078;2023-09-12T10:55:41;27.48;;;19.88;;
52043;SDS011;38053;53.100;6.078;2023-09-12T10:58:08;21.15;;;17.33;;
52043;SDS011;38053;53.100;6.078;2023-09-12T11:00:35;23.17;;;17.20;;
52043;SDS011;38053;53.100;6.078;2023-09-12T11:03:46;20.83;;;16.70;;
52043;SDS011;38053;53.100;6.078;2023-09-12T11:05:53;21.90;;;16.38;;
52043;SDS011;38053;53.100;6.078;2023-09-12T11:08:20;25.40;;;17.40;;
52043;SDS011;38053;53.100;6.078;2023-09-12T11:11:31;27.27;;;16.67;;
52043;SDS011;38053;53.100;6.078;2023-09-12T11:13:45;23.80;;;17.58;;
52043;SDS011;38053;53.100;6.078;2023-09-12T11:16:14;22.85;;;17.02;;
52043;SDS011;38053;53.100;6.078;2023-09-12T11:21:42;26.65;;;17.95;;
52043;SDS011;38053;53.100;6.078;2023-09-12T11:24:09;21.58;;;16.33;;
52043;SDS011;38053;53.100;6.078;2023-09-12T11:26:35;24.90;;;17.70;;
52043;SDS011;38053;53.100;6.078;2023-09-12T11:29:10;23.30;;;16.00;;
52043;SDS011;38053;53.100;6.078;2023-09-12T11:31:39;23.52;;;14.73;;
52043;SDS011;38053;53.100;6.078;2023-09-12T11:34:10;18.65;;;13.63;;
52043;SDS011;38053;53.100;6.078;2023-09-12T11:36:40;21.35;;;14.43;;
52043;SDS011;38053;53.100;6.078;2023-09-12T11:39:21;20.05;;;12.65;;
52043;SDS011;38053;53.100;6.078;2023-09-12T11:41:50;17.73;;;10.70;;
52043;SDS011;38053;53.100;6.078;2023-09-12T11:44:18;18.92;;;13.27;;
52043;SDS011;38053;53.100;6.078;2023-09-12T11:46:47;22.98;;;13.68;;
52043;SDS011;38053;53.100;6.078;2023-09-12T11:49:14;20.48;;;12.68;;
52043;SDS011;38053;53.100;6.078;2023-09-12T11:51:47;23.33;;;13.65;;
52043;SDS011;38053;53.100;6.078;2023-09-12T11:54:18;28.77;;;16.15;;
52043;SDS011;38053;53.100;6.078;2023-09-12T11:56:48;17.67;;;12.60;;
52043;SDS011;38053;53.100;6.078;2023-09-12T11:59:15;18.60;;;13.10;;
52043;SDS011;38053;53.100;6.078;2023-09-12T12:01:44;17.75;;;12.63;;
52043;SDS011;38053;53.100;6.078;2023-09-12T12:04:11;17.90;;;13.18;;
52043;SDS011;38053;53.100;6.078;2023-09-12T12:06:37;19.85;;;13.13;;
52043;SDS011;38053;53.100;6.078;2023-09-12T12:09:02;21.95;;;13.20;;
52043;SDS011;38053;53.100;6.078;2023-09-12T12:11:30;21.08;;;15.88;;
52043;SDS011;38053;53.100;6.078;2023-09-12T12:14:08;18.27;;;13.27;;
52043;SDS011;38053;53.100;6.078;2023-09-12T12:16:35;19.65;;;14.27;;
52043;SDS011;38053;53.100;6.078;2023-09-12T12:19:01;23.98;;;15.32;;
52043;SDS011;38053;53.100;6.078;2023-09-12T12:21:27;18.38;;;13.95;;
52043;SDS011;38053;53.100;6.078;2023-09-12T12:24:02;22.05;;;13.55;;
52043;SDS011;38053;53.100;6.078;2023-09-12T12:26:32;21.42;;;10.52;;
52043;SDS011;38053;53.100;6.078;2023-09-12T12:29:04;15.30;;;11.30;;
52043;SDS011;38053;53.100;6.078;2023-09-12T12:31:30;15.65;;;10.70;;
52043;SDS011;38053;53.100;6.078;2023-09-12T12:33:56;18.20;;;10.60;;
52043;SDS011;38053;53.100;6.078;2023-09-12T12:36:23;12.85;;;9.18;;
52043;SDS011;38053;53.100;6.078;2023-09-12T12:38:49;15.30;;;9.98;;
52043;SDS011;38053;53.100;6.078;2023-09-12T12:41:15;19.98;;;11.40;;
52043;SDS011;38053;53.100;6.078;2023-09-12T12:43:48;17.40;;;11.63;;
52043;SDS011;38053;53.100;6.078;2023-09-12T12:46:20;17.45;;;12.90;;
52043;SDS011;38053;53.100;6.078;2023-09-12T12:48:46;20.50;;;13.05;;
52043;SDS011;38053;53.100;6.078;2023-09-12T12:51:13;20.60;;;11.70;;
52043;SDS011;38053;53.100;6.078;2023-09-12T12:56:14;17.35;;;9.73;;
52043;SDS011;38053;53.100;6.078;2023-09-12T12:58:45;16.17;;;9.20;;
52043;SDS011;38053;53.100;6.078;2023-09-12T13:01:12;13.32;;;8.38;;
52043;SDS011;38053;53.100;6.078;2023-09-12T13:03:38;16.73;;;8.88;;
52043;SDS011;38053;53.100;6.078;2023-09-12T13:06:05;12.13;;;7.65;;
52043;SDS011;38053;53.100;6.078;2023-09-12T13:08:32;11.38;;;8.07;;
52043;SDS011;38053;53.100;6.078;2023-09-12T13:10:59;14.40;;;9.55;;
52043;SDS011;38053;53.100;6.078;2023-09-12T13:13:26;11.25;;;8.95;;
52043;SDS011;38053;53.100;6.078;2023-09-12T13:15:52;12.77;;;8.77;;
52043;SDS011;38053;53.100;6.078;2023-09-12T13:18:18;17.90;;;10.00;;
52043;SDS011;38053;53.100;6.078;2023-09-12T13:20:43;11.95;;;9.02;;
52043;SDS011;38053;53.100;6.078;2023-09-12T13:23:09;17.65;;;10.55;;
52043;SDS011;38053;53.100;6.078;2023-09-12T13:25:35;9.85;;;7.97;;
52043;SDS011;38053;53.100;6.078;2023-09-12T13:28:01;9.30;;;7.22;;
52043;SDS011;38053;53.100;6.078;2023-09-12T13:30:26;13.57;;;7.45;;
52043;SDS011;38053;53.100;6.078;2023-09-12T13:32:52;11.27;;;6.30;;
52043;SDS011;38053;53.100;6.078;2023-09-12T13:35:18;10.23;;;6.65;;
52043;SDS011;38053;53.100;6.078;2023-09-12T13:37:43;9.77;;;6.30;;
52043;SDS011;38053;53.100;6.078;2023-09-12T13:40:09;12.30;;;6.63;;
52043;SDS011;38053;53.100;6.078;2023-09-12T13:42:35;10.48;;;6.43;;
52043;SDS011;38053;53.100;6.078;2023-09-12T13:45:01;10.05;;;7.03;;
52043;SDS011;38053;53.100;6.078;2023-09-12T13:47:27;9.75;;;6.50;;
52043;SDS011;38053;53.100;6.078;2023-09-12T13:49:53;9.50;;;6.72;;
52043;SDS011;38053;53.100;6.078;2023-09-12T13:52:22;11.60;;;5.38;;
52043;SDS011;38053;53.100;6.078;2023-09-12T13:54:47;13.90;;;6.07;;
52043;SDS011;38053;53.100;6.078;2023-09-12T13:57:13;10.30;;;5.38;;
52043;SDS011;38053;53.100;6.078;2023-09-12T13:59:40;11.13;;;6.85;;
52043;SDS011;38053;53.100;6.078;2023-09-12T14:02:06;11.95;;;5.88;;
52043;SDS011;38053;53.100;6.078;2023-09-12T14:04:32;9.63;;;4.65;;
52043;SDS011;38053;53.100;6.078;2023-09-12T14:06:58;9.70;;;4.85;;
52043;SDS011;38053;53.100;6.078;2023-09-12T14:09:24;8.45;;;5.82;;
52043;SDS011;38053;53.100;6.078;2023-09-12T14:11:49;9.15;;;6.32;;
52043;SDS011;38053;53.100;6.078;2023-09-12T14:14:15;10.52;;;5.50;;
52043;SDS011;38053;53.100;6.078;2023-09-12T14:16:42;9.98;;;5.65;;
52043;SDS011;38053;53.100;6.078;2023-09-12T14:19:09;8.60;;;4.97;;
52043;SDS011;38053;53.100;6.078;2023-09-12T14:21:35;7.93;;;5.25;;
52043;SDS011;38053;53.100;6.078;2023-09-12T14:24:01;9.90;;;5.40;;
52043;SDS011;38053;53.100;6.078;2023-09-12T14:26:27;10.77;;;5.30;;
52043;SDS011;38053;53.100;6.078;2023-09-12T14:28:53;9.40;;;5.35;;
52043;SDS011;38053;53.100;6.078;2023-09-12T14:31:20;11.30;;;5.20;;
52043;SDS011;38053;53.100;6.078;2023-09-12T14:33:48;12.63;;;6.65;;
52043;SDS011;38053;53.100;6.078;2023-09-12T14:36:14;8.88;;;6.43;;
52043;SDS011;38053;53.100;6.078;2023-09-12T14:38:40;15.02;;;7.07;;